Time;durP1;ratioP1;P1;durP2;ratioP2;P2;SDS_P1;SDS_P2;PMS_P1;PMS_P2;Temp;Humidity;BMP_temperature;BMP_pressure;BME280_temperature;BME280_humidity;BME280_pressure;Samples;Min_cycle;Max_cycle;Signal;HPM_P1;HPM_P2
2022/10/07 00:01:28;;;;;;;;;;;14.70;90.10;;;;;;5084427;28;19935;-77
2022/10/07 00:03:54;;;;;;;;;;;14.70;90.10;;;;;;5083901;28;19935;-78
2022/10/07 00:06:21;;;;;;;;;;;14.60;90.10;;;;;;5083553;28;19928;-77
2022/10/07 00:08:51;;;;;;;;;;;14.60;90.10;;;;;;5082104;28;19932;-77
2022/10/07 00:11:19;;;;;;;;;;;14.60;90.20;;;;;;5083989;28;19985;-78
2022/10/07 00:13:46;;;;;;;;;;;14.60;90.10;;;;;;5083503;28;20543;-78
2022/10/07 00:16:14;;;;;;;;;;;14.60;90.20;;;;;;5083381;28;19928;-78
2022/10/07 00:18:41;;;;;;;;;;;14.60;90.20;;;;;;5084025;28;19934;-77
2022/10/07 00:21:09;;;;;;;;;;;14.60;90.20;;;;;;5078480;28;19935;-77
2022/10/07 00:23:36;;;;;;;;;;;14.60;90.20;;;;;;5083463;28;19939;-79
2022/10/07 00:26:05;;;;;;;;;;;14.60;90.20;;;;;;5079624;28;19928;-77
2022/10/07 00:28:32;;;;;;;;;;;14.50;90.20;;;;;;5080940;28;19935;-77
2022/10/07 00:30:59;;;;;;;;;;;14.60;90.30;;;;;;5081557;28;19928;-77
2022/10/07 00:33:26;;;;;;;;;;;14.60;90.30;;;;;;5084243;28;19935;-77
2022/10/07 00:35:52;;;;;;;;;;;14.60;90.30;;;;;;5082351;28;19950;-77
2022/10/07 00:38:19;;;;;;;;;;;14.60;90.30;;;;;;5083149;28;19928;-79
2022/10/07 00:40:45;;;;;;;;;;;14.60;90.30;;;;;;5082833;28;20728;-78
2022/10/07 00:43:20;;;;;;;;;;;14.50;90.30;;;;;;5080478;28;19927;-79
2022/10/07 00:45:47;;;;;;;;;;;14.50;90.30;;;;;;5083657;28;19932;-77
2022/10/07 00:48:15;;;;;;;;;;;14.50;90.30;;;;;;5082288;28;19928;-77
2022/10/07 00:50:42;;;;;;;;;;;14.60;90.30;;;;;;5082197;28;19935;-77
2022/10/07 00:53:09;;;;;;;;;;;14.50;90.30;;;;;;5080509;28;19928;-77
2022/10/07 00:55:36;;;;;;;;;;;14.50;90.40;;;;;;5082913;28;20461;-77
2022/10/07 00:58:07;;;;;;;;;;;14.50;90.30;;;;;;5082284;28;19932;-77
2022/10/07 01:00:35;;;;;;;;;;;14.50;90.30;;;;;;5081983;28;19928;-77
2022/10/07 01:03:02;;;;;;;;;;;14.50;90.30;;;;;;5082120;28;19939;-77
2022/10/07 01:05:29;;;;;;;;;;;14.50;90.40;;;;;;5082267;28;21097;-76
2022/10/07 01:07:56;;;;;;;;;;;14.50;90.40;;;;;;5083869;28;19928;-77
2022/10/07 01:10:24;;;;;;;;;;;14.50;90.40;;;;;;5083221;28;19944;-78
2022/10/07 01:12:57;;;;;;;;;;;14.50;90.40;;;;;;5082171;28;19935;-77
2022/10/07 01:15:28;;;;;;;;;;;14.50;90.40;;;;;;5082038;28;20009;-77
2022/10/07 01:18:01;;;;;;;;;;;14.50;90.40;;;;;;5082588;28;19928;-77
2022/10/07 01:20:33;;;;;;;;;;;14.50;90.40;;;;;;5080136;28;19932;-78
2022/10/07 01:23:11;;;;;;;;;;;14.50;90.40;;;;;;5085711;28;20670;-77
2022/10/07 01:25:46;;;;;;;;;;;14.40;90.40;;;;;;5086956;28;19931;-77
2022/10/07 01:28:18;;;;;;;;;;;14.40;90.40;;;;;;5082300;28;19928;-77
2022/10/07 01:30:48;;;;;;;;;;;14.40;90.50;;;;;;5080012;28;19928;-77
2022/10/07 01:33:16;;;;;;;;;;;14.40;90.50;;;;;;5086240;28;20202;-79
2022/10/07 01:35:45;;;;;;;;;;;14.40;90.40;;;;;;5085092;28;19935;-79
2022/10/07 01:38:13;;;;;;;;;;;14.40;90.50;;;;;;5086280;28;19932;-79
2022/10/07 01:40:42;;;;;;;;;;;14.40;90.50;;;;;;5086092;28;19939;-78
2022/10/07 01:43:09;;;;;;;;;;;14.40;90.40;;;;;;5082480;28;20308;-78
2022/10/07 01:45:38;;;;;;;;;;;14.40;90.50;;;;;;5086071;28;19924;-79
2022/10/07 01:48:05;;;;;;;;;;;14.40;90.50;;;;;;5086110;28;19935;-77
2022/10/07 01:50:33;;;;;;;;;;;14.40;90.50;;;;;;5081681;28;19936;-78
2022/10/07 01:53:04;;;;;;;;;;;14.40;90.50;;;;;;5084428;28;19939;-77
2022/10/07 01:55:41;;;;;;;;;;;14.40;90.50;;;;;;5086800;28;19928;-77
2022/10/07 01:58:12;;;;;;;;;;;14.40;90.50;;;;;;5080470;28;19939;-79
2022/10/07 02:00:43;;;;;;;;;;;14.40;90.50;;;;;;5084842;28;19932;-77
2022/10/07 02:03:16;;;;;;;;;;;14.30;90.50;;;;;;5085589;28;19963;-78
2022/10/07 02:05:47;;;;;;;;;;;14.40;90.50;;;;;;5083234;28;19928;-78
2022/10/07 02:08:19;;;;;;;;;;;14.30;90.50;;;;;;5086255;28;19932;-77
2022/10/07 02:10:50;;;;;;;;;;;14.30;90.50;;;;;;5084753;28;20475;-77
2022/10/07 02:13:23;;;;;;;;;;;14.30;90.40;;;;;;5084553;28;19935;-78
2022/10/07 02:15:56;;;;;;;;;;;14.30;90.50;;;;;;5085320;28;19939;-78
2022/10/07 02:18:22;;;;;;;;;;;14.30;90.50;;;;;;5085430;28;20426;-77
2022/10/07 02:20:50;;;;;;;;;;;14.30;90.50;;;;;;5077366;28;19928;-78
2022/10/07 02:23:19;;;;;;;;;;;14.30;90.50;;;;;;5085482;28;19928;-78
2022/10/07 02:25:47;;;;;;;;;;;14.30;90.50;;;;;;5083170;28;20359;-79
2022/10/07 02:28:14;;;;;;;;;;;14.30;90.50;;;;;;5081547;28;19935;-76
2022/10/07 02:30:43;;;;;;;;;;;14.30;90.60;;;;;;5084181;28;19951;-77
2022/10/07 02:33:12;;;;;;;;;;;14.30;90.90;;;;;;5084196;28;19932;-78
2022/10/07 02:35:41;;;;;;;;;;;14.30;90.50;;;;;;5084705;28;19927;-79
2022/10/07 02:38:09;;;;;;;;;;;14.30;90.50;;;;;;5085885;28;19928;-77
2022/10/07 02:40:40;;;;;;;;;;;14.30;90.60;;;;;;5084398;28;19935;-79
2022/10/07 02:43:10;;;;;;;;;;;14.30;90.60;;;;;;5080122;28;19934;-79
2022/10/07 02:45:40;;;;;;;;;;;14.20;90.50;;;;;;5083597;28;19932;-78
2022/10/07 02:48:10;;;;;;;;;;;14.30;90.60;;;;;;5083875;28;19935;-77
2022/10/07 02:50:39;;;;;;;;;;;14.20;90.50;;;;;;5078620;28;20310;-78
2022/10/07 02:53:07;;;;;;;;;;;14.30;90.60;;;;;;5082868;28;19928;-78
2022/10/07 02:55:34;;;;;;;;;;;14.20;90.50;;;;;;5084237;28;20314;-77
2022/10/07 02:58:03;;;;;;;;;;;14.30;90.60;;;;;;5080908;28;19935;-78
2022/10/07 03:00:31;;;;;;;;;;;14.20;90.50;;;;;;5083809;28;20160;-78
2022/10/07 03:03:00;;;;;;;;;;;14.20;90.60;;;;;;5085001;28;19928;-77
2022/10/07 03:05:26;;;;;;;;;;;14.20;90.60;;;;;;5078702;28;19989;-76
2022/10/07 03:07:56;;;;;;;;;;;14.20;90.60;;;;;;5085396;28;20694;-79
2022/10/07 03:10:22;;;;;;;;;;;14.20;90.60;;;;;;5082723;28;20111;-78
2022/10/07 03:12:50;;;;;;;;;;;14.20;90.60;;;;;;5084058;28;20310;-77
2022/10/07 03:15:16;;;;;;;;;;;14.20;90.70;;;;;;5083081;28;20897;-79
2022/10/07 03:17:43;;;;;;;;;;;14.20;90.60;;;;;;5085175;28;19935;-78
2022/10/07 03:20:10;;;;;;;;;;;14.20;91.00;;;;;;5083444;28;19935;-77
2022/10/07 03:22:37;;;;;;;;;;;14.20;90.60;;;;;;5085015;28;19973;-77
2022/10/07 03:25:05;;;;;;;;;;;14.20;90.60;;;;;;5084330;28;19928;-78
2022/10/07 03:27:32;;;;;;;;;;;14.20;90.60;;;;;;5077595;28;19924;-77
2022/10/07 03:29:58;;;;;;;;;;;14.20;90.60;;;;;;5082559;28;19939;-77
2022/10/07 03:32:26;;;;;;;;;;;14.10;90.60;;;;;;5084606;28;19928;-77
2022/10/07 03:34:53;;;;;;;;;;;14.20;90.70;;;;;;5084404;28;19935;-78
2022/10/07 03:37:19;;;;;;;;;;;14.20;91.00;;;;;;5084181;28;19928;-77
2022/10/07 03:39:46;;;;;;;;;;;14.20;90.70;;;;;;5083494;28;19939;-77
2022/10/07 03:42:14;;;;;;;;;;;14.10;90.60;;;;;;5079066;28;19936;-78
2022/10/07 03:44:41;;;;;;;;;;;14.10;90.70;;;;;;5083013;28;19928;-79
2022/10/07 03:47:08;;;;;;;;;;;14.20;90.70;;;;;;5082816;28;19928;-78
2022/10/07 03:49:34;;;;;;;;;;;14.10;90.70;;;;;;5083167;28;19989;-77
2022/10/07 03:52:01;;;;;;;;;;;14.10;91.00;;;;;;5082937;28;19936;-78
2022/10/07 03:54:28;;;;;;;;;;;14.10;90.70;;;;;;5083684;28;19979;-78
2022/10/07 03:56:55;;;;;;;;;;;14.10;90.70;;;;;;5080926;28;19986;-77
2022/10/07 03:59:23;;;;;;;;;;;14.10;90.70;;;;;;5082012;28;19974;-79
2022/10/07 04:01:49;;;;;;;;;;;14.10;90.80;;;;;;5083780;28;19927;-78
2022/10/07 04:04:16;;;;;;;;;;;14.10;90.70;;;;;;5083302;28;19932;-78
2022/10/07 04:06:43;;;;;;;;;;;14.10;90.70;;;;;;5081530;28;19935;-78
2022/10/07 04:09:11;;;;;;;;;;;14.10;90.70;;;;;;5082137;28;19928;-79
2022/10/07 04:11:40;;;;;;;;;;;14.10;90.70;;;;;;5082685;28;19928;-78
2022/10/07 04:14:07;;;;;;;;;;;14.10;90.80;;;;;;5085208;28;19996;-79
2022/10/07 04:16:37;;;;;;;;;;;14.00;90.70;;;;;;5083995;28;20097;-77
2022/10/07 04:19:04;;;;;;;;;;;14.10;90.80;;;;;;5084198;28;19927;-77
2022/10/07 04:21:31;;;;;;;;;;;14.10;90.70;;;;;;5078932;28;19989;-79
2022/10/07 04:23:57;;;;;;;;;;;14.00;90.70;;;;;;5084829;28;19928;-78
2022/10/07 04:26:24;;;;;;;;;;;14.00;90.70;;;;;;5083342;28;20451;-77
2022/10/07 04:28:51;;;;;;;;;;;14.00;90.70;;;;;;5079652;28;20015;-78
2022/10/07 04:31:17;;;;;;;;;;;14.00;90.60;;;;;;5082537;28;19935;-78
2022/10/07 04:33:46;;;;;;;;;;;14.00;90.70;;;;;;5083573;28;19928;-78
2022/10/07 04:36:12;;;;;;;;;;;14.00;90.60;;;;;;5082450;28;19928;-79
2022/10/07 04:38:41;;;;;;;;;;;14.00;90.60;;;;;;5083638;28;19943;-77
2022/10/07 04:41:08;;;;;;;;;;;14.00;90.60;;;;;;5082216;28;19928;-79
2022/10/07 04:43:35;;;;;;;;;;;14.00;90.60;;;;;;5079603;28;19928;-77
2022/10/07 04:46:02;;;;;;;;;;;14.00;90.70;;;;;;5082036;28;19928;-78
2022/10/07 04:48:29;;;;;;;;;;;14.00;90.60;;;;;;5084055;28;19928;-77
2022/10/07 04:51:00;;;;;;;;;;;14.00;90.70;;;;;;5081261;28;19932;-76
2022/10/07 04:53:26;;;;;;;;;;;14.00;90.60;;;;;;5076835;28;19928;-76
2022/10/07 04:55:53;;;;;;;;;;;14.00;90.60;;;;;;5084154;28;20410;-79
2022/10/07 04:58:20;;;;;;;;;;;14.00;90.60;;;;;;5084128;28;19928;-78
2022/10/07 05:00:47;;;;;;;;;;;14.00;90.60;;;;;;5085785;28;19967;-78
2022/10/07 05:03:15;;;;;;;;;;;13.90;90.60;;;;;;5088519;28;20014;-78
2022/10/07 05:05:42;;;;;;;;;;;14.00;90.60;;;;;;5086048;28;19928;-78
2022/10/07 05:08:10;;;;;;;;;;;14.00;90.60;;;;;;5086546;28;20774;-78
2022/10/07 05:10:37;;;;;;;;;;;13.90;90.60;;;;;;5085479;28;19935;-79
2022/10/07 05:13:04;;;;;;;;;;;13.90;90.50;;;;;;5085899;28;19928;-78
2022/10/07 05:15:30;;;;;;;;;;;13.90;90.50;;;;;;5085767;28;19939;-77
2022/10/07 05:17:57;;;;;;;;;;;13.90;90.90;;;;;;5087217;28;19931;-77
2022/10/07 05:20:24;;;;;;;;;;;13.90;90.50;;;;;;5086336;28;19935;-78
2022/10/07 05:22:51;;;;;;;;;;;13.90;90.50;;;;;;5082589;28;20071;-78
2022/10/07 05:25:19;;;;;;;;;;;13.90;90.60;;;;;;5086478;28;19928;-77
2022/10/07 05:27:50;;;;;;;;;;;13.90;90.50;;;;;;5078340;28;19927;-77
2022/10/07 05:30:17;;;;;;;;;;;13.80;90.50;;;;;;5085411;28;20311;-78
2022/10/07 05:32:44;;;;;;;;;;;13.80;90.50;;;;;;5086542;28;19934;-76
2022/10/07 05:35:11;;;;;;;;;;;13.80;90.50;;;;;;5085917;28;20399;-76
2022/10/07 05:37:37;;;;;;;;;;;13.90;90.50;;;;;;5081756;28;20355;-77
2022/10/07 05:40:04;;;;;;;;;;;13.80;90.50;;;;;;5085252;28;19928;-76
2022/10/07 05:42:32;;;;;;;;;;;13.80;90.50;;;;;;5081749;28;19928;-76
2022/10/07 05:44:59;;;;;;;;;;;13.80;90.50;;;;;;5084581;28;19943;-76
2022/10/07 05:47:25;;;;;;;;;;;13.80;90.50;;;;;;5085100;28;19939;-76
2022/10/07 05:49:57;;;;;;;;;;;13.80;90.60;;;;;;5083643;28;19934;-76
2022/10/07 05:52:23;;;;;;;;;;;13.80;90.50;;;;;;5080816;28;20573;-77
2022/10/07 05:54:50;;;;;;;;;;;13.70;90.50;;;;;;5085710;28;19969;-78
2022/10/07 05:57:17;;;;;;;;;;;13.80;90.50;;;;;;5081813;28;19928;-76
2022/10/07 05:59:45;;;;;;;;;;;13.70;90.50;;;;;;5085138;28;19928;-76
2022/10/07 06:02:13;;;;;;;;;;;13.80;90.60;;;;;;5084905;28;19928;-78
2022/10/07 06:04:41;;;;;;;;;;;13.70;90.60;;;;;;5085593;28;19956;-76
2022/10/07 06:07:08;;;;;;;;;;;13.70;90.60;;;;;;5083327;28;19928;-76
2022/10/07 06:15:05;;;;;;;;;;;13.70;90.60;;;;;;5082332;28;20016;-76
2022/10/07 06:17:31;;;;;;;;;;;13.70;90.70;;;;;;5084429;28;19951;-78
2022/10/07 06:19:58;;;;;;;;;;;13.70;90.70;;;;;;5084403;28;19962;-78
2022/10/07 06:22:24;;;;;;;;;;;13.70;90.70;;;;;;5084486;28;19936;-78
2022/10/07 06:24:56;;;;;;;;;;;13.70;90.70;;;;;;5084991;28;20403;-77
2022/10/07 06:27:23;;;;;;;;;;;13.60;90.70;;;;;;5081280;28;20024;-77
2022/10/07 06:29:49;;;;;;;;;;;13.60;90.70;;;;;;5084778;28;19928;-77
2022/10/07 06:32:17;;;;;;;;;;;13.60;90.70;;;;;;5085124;28;20767;-78
2022/10/07 06:34:44;;;;;;;;;;;13.60;90.60;;;;;;5085161;28;20002;-78
2022/10/07 06:37:11;;;;;;;;;;;13.60;90.70;;;;;;5085327;28;19924;-78
2022/10/07 06:39:37;;;;;;;;;;;13.60;90.70;;;;;;5084239;28;20406;-78
2022/10/07 06:42:04;;;;;;;;;;;13.60;90.70;;;;;;5081314;28;19963;-76
2022/10/07 06:44:31;;;;;;;;;;;13.60;90.70;;;;;;5084425;28;19928;-78
2022/10/07 06:46:57;;;;;;;;;;;13.60;90.70;;;;;;5084548;28;19985;-79
2022/10/07 06:49:25;;;;;;;;;;;13.60;90.80;;;;;;5083660;28;20721;-79
2022/10/07 06:51:52;;;;;;;;;;;13.60;90.80;;;;;;5081259;28;19979;-78
2022/10/07 06:54:19;;;;;;;;;;;13.60;90.80;;;;;;5085586;28;19932;-79
2022/10/07 06:56:45;;;;;;;;;;;13.60;90.80;;;;;;5082304;28;19928;-77
2022/10/07 06:59:12;;;;;;;;;;;13.60;90.80;;;;;;5082801;28;19932;-79
2022/10/07 07:01:39;;;;;;;;;;;13.60;90.80;;;;;;5083999;28;19928;-79
2022/10/07 07:04:05;;;;;;;;;;;13.50;90.80;;;;;;5084189;28;19939;-79
2022/10/07 07:06:36;;;;;;;;;;;13.60;91.20;;;;;;5083811;28;19928;-77
2022/10/07 07:09:04;;;;;;;;;;;13.50;90.80;;;;;;5084411;28;19998;-78
2022/10/07 07:11:36;;;;;;;;;;;13.50;90.80;;;;;;5086482;28;19936;-80
2022/10/07 07:14:04;;;;;;;;;;;13.50;90.80;;;;;;5087417;28;19928;-79
2022/10/07 07:16:30;;;;;;;;;;;13.50;90.80;;;;;;5084468;28;19932;-78
2022/10/07 07:18:58;;;;;;;;;;;13.50;90.80;;;;;;5083672;28;20599;-79
2022/10/07 07:21:27;;;;;;;;;;;13.50;90.70;;;;;;5082009;28;19935;-78
2022/10/07 07:23:55;;;;;;;;;;;13.50;90.70;;;;;;5085314;28;19928;-79
2022/10/07 07:26:22;;;;;;;;;;;13.50;90.80;;;;;;5084723;28;19932;-79
2022/10/07 07:28:51;;;;;;;;;;;13.50;90.70;;;;;;5081266;28;19928;-79
2022/10/07 07:31:18;;;;;;;;;;;13.50;90.80;;;;;;5077436;28;20020;-79
2022/10/07 07:33:51;;;;;;;;;;;13.50;90.80;;;;;;5084904;28;19927;-78
2022/10/07 07:36:18;;;;;;;;;;;13.50;90.80;;;;;;5078593;28;20533;-78
2022/10/07 07:38:50;;;;;;;;;;;13.50;90.80;;;;;;5084125;28;19935;-79
2022/10/07 07:41:17;;;;;;;;;;;13.50;90.80;;;;;;5082854;28;19932;-78
2022/10/07 07:43:47;;;;;;;;;;;13.50;90.80;;;;;;5081715;28;19927;-77
2022/10/07 07:46:14;;;;;;;;;;;13.50;90.80;;;;;;5083189;28;19934;-79
2022/10/07 07:48:40;;;;;;;;;;;13.50;90.80;;;;;;5084301;28;19935;-78
2022/10/07 07:51:07;;;;;;;;;;;13.50;90.80;;;;;;5081183;28;19935;-77
2022/10/07 07:53:36;;;;;;;;;;;13.50;90.80;;;;;;5084322;28;19928;-77
2022/10/07 07:56:03;;;;;;;;;;;13.40;90.70;;;;;;5083209;28;19928;-77
2022/10/07 07:58:31;;;;;;;;;;;13.40;90.70;;;;;;5079638;28;19928;-78
2022/10/07 08:00:58;;;;;;;;;;;13.50;90.80;;;;;;5082775;28;19978;-78
2022/10/07 08:03:25;;;;;;;;;;;13.40;90.70;;;;;;5084587;28;19932;-78
2022/10/07 08:05:52;;;;;;;;;;;13.50;90.80;;;;;;5082918;28;20205;-78
2022/10/07 08:08:18;;;;;;;;;;;13.50;90.70;;;;;;5083544;28;19928;-78
2022/10/07 08:10:45;;;;;;;;;;;13.40;90.70;;;;;;5083863;28;19935;-78
2022/10/07 08:13:12;;;;;;;;;;;13.50;90.70;;;;;;5082321;28;19932;-79
2022/10/07 08:15:40;;;;;;;;;;;13.40;90.70;;;;;;5082859;28;20744;-80
2022/10/07 08:18:06;;;;;;;;;;;13.40;90.60;;;;;;5085455;28;19936;-79
2022/10/07 08:20:34;;;;;;;;;;;13.40;90.60;;;;;;5082077;28;20007;-79
2022/10/07 08:23:01;;;;;;;;;;;13.40;90.60;;;;;;5080113;28;19928;-78
2022/10/07 08:25:28;;;;;;;;;;;13.40;90.60;;;;;;5084216;28;19927;-78
2022/10/07 08:27:58;;;;;;;;;;;13.40;90.60;;;;;;5077933;28;19939;-78
2022/10/07 08:30:25;;;;;;;;;;;13.50;90.70;;;;;;5081568;28;19939;-77
2022/10/07 08:32:53;;;;;;;;;;;13.50;90.50;;;;;;5083739;28;19932;-78
2022/10/07 08:35:22;;;;;;;;;;;13.50;90.50;;;;;;5082265;28;20036;-79
2022/10/07 08:37:48;;;;;;;;;;;13.40;90.40;;;;;;5083124;28;19928;-80
2022/10/07 08:40:17;;;;;;;;;;;13.50;90.30;;;;;;5082342;28;19928;-78
2022/10/07 08:42:44;;;;;;;;;;;13.50;90.30;;;;;;5082811;28;19971;-78
2022/10/07 08:45:15;;;;;;;;;;;13.50;90.30;;;;;;5082913;28;20312;-78
2022/10/07 08:47:43;;;;;;;;;;;13.50;90.20;;;;;;5083954;28;19932;-78
2022/10/07 08:50:13;;;;;;;;;;;13.50;90.20;;;;;;5081801;28;20453;-79
2022/10/07 08:52:47;;;;;;;;;;;13.50;90.20;;;;;;5082854;28;19927;-79
2022/10/07 08:55:15;;;;;;;;;;;13.50;90.10;;;;;;5083289;28;19934;-77
2022/10/07 08:57:46;;;;;;;;;;;13.50;90.10;;;;;;5082453;28;19928;-79
2022/10/07 09:00:16;;;;;;;;;;;13.50;90.10;;;;;;5081864;28;19932;-78
2022/10/07 09:02:50;;;;;;;;;;;13.60;90.00;;;;;;5083465;28;20300;-79
2022/10/07 09:05:21;;;;;;;;;;;13.60;90.00;;;;;;5079132;28;19928;-79
2022/10/07 09:07:49;;;;;;;;;;;13.60;89.90;;;;;;5083924;28;19928;-78
2022/10/07 09:10:23;;;;;;;;;;;13.60;89.70;;;;;;5083139;28;19932;-77
2022/10/07 09:12:52;;;;;;;;;;;13.60;89.50;;;;;;5080477;28;19928;-78
2022/10/07 09:15:20;;;;;;;;;;;13.70;89.40;;;;;;5082397;28;20577;-78
2022/10/07 09:17:52;;;;;;;;;;;13.70;89.30;;;;;;5082520;28;19929;-77
2022/10/07 09:20:21;;;;;;;;;;;13.70;89.10;;;;;;5080094;28;19932;-78
2022/10/07 09:22:51;;;;;;;;;;;13.80;89.20;;;;;;5083421;28;19928;-78
2022/10/07 09:25:19;;;;;;;;;;;13.80;89.10;;;;;;5082764;28;19967;-77
2022/10/07 09:27:47;;;;;;;;;;;13.80;88.90;;;;;;5079116;28;19928;-80
2022/10/07 09:30:15;;;;;;;;;;;13.90;88.80;;;;;;5082434;28;19928;-78
2022/10/07 09:32:43;;;;;;;;;;;14.00;88.90;;;;;;5083133;28;19994;-79
2022/10/07 09:35:12;;;;;;;;;;;14.00;89.10;;;;;;5082280;28;20015;-78
2022/10/07 09:37:53;;;;;;;;;;;14.00;88.40;;;;;;5077947;28;19928;-79
2022/10/07 09:40:22;;;;;;;;;;;14.10;88.30;;;;;;5082840;28;19928;-77
2022/10/07 09:42:48;;;;;;;;;;;14.10;88.00;;;;;;5061052;28;19928;-78
2022/10/07 09:45:19;;;;;;;;;;;14.20;88.00;;;;;;5065238;28;19939;-77
2022/10/07 09:47:51;;;;;;;;;;;14.20;87.70;;;;;;5065961;28;20764;-78
2022/10/07 09:50:32;;;;;;;;;;;14.30;87.50;;;;;;5065523;28;19924;-78
2022/10/07 09:53:03;;;;;;;;;;;14.30;87.70;;;;;;5064722;28;19932;-78
2022/10/07 09:55:36;;;;;;;;;;;14.40;87.50;;;;;;5067186;28;19936;-78
2022/10/07 09:58:04;;;;;;;;;;;14.50;87.40;;;;;;5063614;28;19998;-79
2022/10/07 10:00:31;;;;;;;;;;;14.50;87.40;;;;;;5065978;28;20109;-77
2022/10/07 10:03:03;;;;;;;;;;;14.60;86.80;;;;;;5066505;28;19928;-79
2022/10/07 10:05:31;;;;;;;;;;;14.60;86.70;;;;;;5066623;28;19929;-79
2022/10/07 10:08:00;;;;;;;;;;;14.70;85.50;;;;;;5063762;28;19928;-78
2022/10/07 10:10:31;;;;;;;;;;;14.80;86.20;;;;;;5066944;28;19939;-79
2022/10/07 10:12:58;;;;;;;;;;;14.80;86.60;;;;;;5065869;28;20309;-79
2022/10/07 10:15:27;;;;;;;;;;;14.90;86.60;;;;;;5065799;28;19933;-79
2022/10/07 10:17:55;;;;;;;;;;;14.90;86.20;;;;;;5066699;28;20302;-79
2022/10/07 10:20:28;;;;;;;;;;;15.00;85.20;;;;;;5064987;28;19932;-78
2022/10/07 10:22:54;;;;;;;;;;;15.00;85.30;;;;;;5065171;28;19928;-79
2022/10/07 10:28:21;;;;;;;;;;;15.10;85.50;;;;;;5062156;28;19939;-78
2022/10/07 10:30:53;;;;;;;;;;;15.20;85.80;;;;;;5064560;28;19929;-80
2022/10/07 10:33:23;;;;;;;;;;;15.20;85.70;;;;;;5067013;28;19934;-79
2022/10/07 10:35:54;;;;;;;;;;;15.30;85.90;;;;;;5066392;28;20043;-80
2022/10/07 10:38:26;;;;;;;;;;;15.30;85.80;;;;;;5066130;28;19928;-80
2022/10/07 10:40:59;;;;;;;;;;;15.30;85.40;;;;;;5068813;28;19929;-80
2022/10/07 10:43:28;;;;;;;;;;;15.40;85.20;;;;;;5064238;28;20314;-78
2022/10/07 10:46:04;;;;;;;;;;;15.40;85.10;;;;;;5063712;28;19928;-78
2022/10/07 10:48:36;;;;;;;;;;;15.50;85.00;;;;;;5059316;28;19928;-78
2022/10/07 10:51:12;;;;;;;;;;;15.60;84.70;;;;;;5063791;28;19934;-79
2022/10/07 10:53:43;;;;;;;;;;;15.60;84.50;;;;;;5065585;28;19940;-80
2022/10/07 10:56:21;;;;;;;;;;;15.70;84.10;;;;;;5064527;28;20275;-80
2022/10/07 10:58:57;;;;;;;;;;;15.70;83.90;;;;;;5061437;28;19928;-78
2022/10/07 11:01:29;;;;;;;;;;;15.80;83.80;;;;;;5057577;28;20396;-79
2022/10/07 11:04:13;;;;;;;;;;;15.80;83.60;;;;;;5065662;28;19935;-78
2022/10/07 11:06:44;;;;;;;;;;;15.80;83.30;;;;;;5060473;28;20018;-79
2022/10/07 11:09:15;;;;;;;;;;;15.90;83.40;;;;;;5065192;28;19928;-78
2022/10/07 11:11:43;;;;;;;;;;;15.90;83.50;;;;;;5064664;28;19928;-78
2022/10/07 11:14:12;;;;;;;;;;;16.00;83.30;;;;;;5065956;28;19935;-78
2022/10/07 11:16:41;;;;;;;;;;;16.00;83.30;;;;;;5064473;28;19929;-78
2022/10/07 11:19:11;;;;;;;;;;;16.00;83.10;;;;;;5064933;28;19928;-78
2022/10/07 11:21:44;;;;;;;;;;;16.00;83.10;;;;;;5061000;28;21601;-79
2022/10/07 11:24:14;;;;;;;;;;;16.10;82.80;;;;;;5065631;28;20739;-80
2022/10/07 11:26:43;;;;;;;;;;;16.20;82.80;;;;;;5060193;28;19929;-79
2022/10/07 11:29:15;;;;;;;;;;;16.20;82.70;;;;;;5064539;28;20592;-78
2022/10/07 11:31:45;;;;;;;;;;;16.30;82.50;;;;;;5063698;28;20385;-77
2022/10/07 11:34:17;;;;;;;;;;;16.40;82.50;;;;;;5065523;28;19928;-79
2022/10/07 11:36:46;;;;;;;;;;;16.40;82.30;;;;;;5063600;28;20339;-79
2022/10/07 11:39:13;;;;;;;;;;;16.50;82.40;;;;;;5064447;28;19943;-80
2022/10/07 11:41:46;;;;;;;;;;;16.50;81.30;;;;;;5065183;28;20404;-79
2022/10/07 11:44:17;;;;;;;;;;;16.60;81.30;;;;;;5063834;28;19932;-78
2022/10/07 11:46:44;;;;;;;;;;;16.70;81.20;;;;;;5062777;28;19996;-80
2022/10/07 11:49:15;;;;;;;;;;;16.70;81.10;;;;;;5061489;28;19974;-78
2022/10/07 11:51:48;;;;;;;;;;;16.80;81.90;;;;;;5064396;28;19929;-79
2022/10/07 11:54:16;;;;;;;;;;;16.90;81.10;;;;;;5063723;28;19928;-80
2022/10/07 11:56:45;;;;;;;;;;;16.90;80.50;;;;;;5062791;28;19958;-78
2022/10/07 11:59:27;;;;;;;;;;;17.00;80.60;;;;;;5061322;28;19932;-78
2022/10/07 12:01:54;;;;;;;;;;;17.10;80.60;;;;;;5063554;28;20127;-79
2022/10/07 12:04:25;;;;;;;;;;;17.10;79.90;;;;;;5062085;28;19928;-79
2022/10/07 12:07:10;;;;;;;;;;;17.20;79.40;;;;;;5063864;28;20014;-79
2022/10/07 12:09:53;;;;;;;;;;;17.30;79.40;;;;;;5057678;28;19929;-79
2022/10/07 12:12:22;;;;;;;;;;;17.30;79.60;;;;;;5062703;28;19936;-79
2022/10/07 12:14:59;;;;;;;;;;;17.40;78.90;;;;;;5063088;28;19929;-78
2022/10/07 12:17:28;;;;;;;;;;;17.50;79.10;;;;;;5062935;28;19929;-78
2022/10/07 12:20:26;;;;;;;;;;;17.50;78.90;;;;;;5063031;28;19937;-79
2022/10/07 12:23:08;;;;;;;;;;;17.60;78.70;;;;;;5059739;28;19928;-79
2022/10/07 12:25:41;;;;;;;;;;;17.60;78.70;;;;;;5063524;28;19924;-79
2022/10/07 12:28:13;;;;;;;;;;;17.60;79.00;;;;;;5060309;28;19951;-78
2022/10/07 12:30:49;;;;;;;;;;;17.60;79.10;;;;;;5063626;28;19928;-80
2022/10/07 12:33:16;;;;;;;;;;;17.70;79.10;;;;;;5064661;28;19932;-80
2022/10/07 12:35:45;;;;;;;;;;;17.60;79.10;;;;;;5064794;28;19928;-80
2022/10/07 12:38:23;;;;;;;;;;;17.60;78.90;;;;;;5062482;28;19932;-79
2022/10/07 12:40:52;;;;;;;;;;;17.60;79.20;;;;;;5063496;28;19929;-78
2022/10/07 12:43:25;;;;;;;;;;;17.60;79.60;;;;;;5059699;28;19935;-79
2022/10/07 12:45:53;;;;;;;;;;;17.60;79.60;;;;;;5062295;28;20010;-79
2022/10/07 12:48:21;;;;;;;;;;;17.60;79.70;;;;;;5063638;28;20320;-79
2022/10/07 12:50:49;;;;;;;;;;;17.60;79.80;;;;;;5059743;28;19929;-78
2022/10/07 12:53:18;;;;;;;;;;;17.60;80.00;;;;;;5062674;28;19962;-78
2022/10/07 12:55:47;;;;;;;;;;;17.60;80.00;;;;;;5063283;28;20303;-79
2022/10/07 13:01:21;;;;;;;;;;;17.60;80.00;;;;;;5062367;28;19931;-80
2022/10/07 13:03:59;;;;;;;;;;;17.70;80.10;;;;;;5064322;28;20033;-79
2022/10/07 13:06:40;;;;;;;;;;;17.70;80.10;;;;;;5056492;28;19939;-78
2022/10/07 13:09:24;;;;;;;;;;;17.80;80.10;;;;;;5062808;28;19935;-78
2022/10/07 13:12:03;;;;;;;;;;;17.70;80.00;;;;;;5062314;28;19929;-79
2022/10/07 13:14:34;;;;;;;;;;;17.80;80.00;;;;;;5062854;28;20015;-78
2022/10/07 13:17:19;;;;;;;;;;;17.80;79.90;;;;;;5061446;28;19935;-80
2022/10/07 13:19:51;;;;;;;;;;;17.90;79.80;;;;;;5066989;28;19932;-79
2022/10/07 13:22:20;;;;;;;;;;;17.90;79.80;;;;;;5065940;28;20385;-79
2022/10/07 13:24:48;;;;;;;;;;;17.90;79.60;;;;;;5066634;28;20360;-79
2022/10/07 13:27:17;;;;;;;;;;;18.00;79.40;;;;;;5060243;28;19933;-78
2022/10/07 13:29:44;;;;;;;;;;;18.00;79.40;;;;;;5066324;28;19932;-79
2022/10/07 13:32:14;;;;;;;;;;;18.10;79.40;;;;;;5066277;28;19925;-79
2022/10/07 13:34:41;;;;;;;;;;;18.10;79.40;;;;;;5067430;28;20184;-78
2022/10/07 13:37:23;;;;;;;;;;;18.20;79.30;;;;;;5063567;28;19932;-80
2022/10/07 13:39:49;;;;;;;;;;;18.20;79.00;;;;;;5066579;28;20381;-78
2022/10/07 13:42:16;;;;;;;;;;;18.30;78.70;;;;;;5062534;28;19933;-79
2022/10/07 13:44:43;;;;;;;;;;;18.30;78.70;;;;;;5066544;28;19936;-79
2022/10/07 13:47:17;;;;;;;;;;;18.40;78.50;;;;;;5066657;28;19929;-79
2022/10/07 13:49:45;;;;;;;;;;;18.40;78.50;;;;;;5066090;28;19932;-78
2022/10/07 13:52:19;;;;;;;;;;;18.40;78.30;;;;;;5064207;28;20403;-79
2022/10/07 13:54:49;;;;;;;;;;;18.40;78.30;;;;;;5067452;28;19928;-79
2022/10/07 13:57:17;;;;;;;;;;;18.50;78.40;;;;;;5063112;28;20055;-79
2022/10/07 13:59:44;;;;;;;;;;;18.50;78.40;;;;;;5064289;28;20904;-79
2022/10/07 14:02:14;;;;;;;;;;;18.50;78.30;;;;;;5065217;28;19928;-78
2022/10/07 14:04:55;;;;;;;;;;;18.60;78.10;;;;;;5064600;28;19939;-79
2022/10/07 14:07:21;;;;;;;;;;;18.60;77.70;;;;;;5066342;28;20344;-79
2022/10/07 14:09:49;;;;;;;;;;;18.70;77.80;;;;;;5065983;28;20275;-79
2022/10/07 14:12:17;;;;;;;;;;;18.70;77.90;;;;;;5062877;28;20471;-80
2022/10/07 14:14:45;;;;;;;;;;;18.80;77.70;;;;;;5067158;28;19932;-79
2022/10/07 14:17:18;;;;;;;;;;;18.90;77.90;;;;;;5064097;28;19928;-80
2022/10/07 14:19:50;;;;;;;;;;;18.90;77.70;;;;;;5064306;28;19928;-78
2022/10/07 14:22:18;;;;;;;;;;;18.90;77.50;;;;;;5065623;28;19933;-78
2022/10/07 14:24:52;;;;;;;;;;;18.90;77.30;;;;;;5064548;28;19928;-80
2022/10/07 14:27:38;;;;;;;;;;;19.00;77.30;;;;;;5061458;28;20609;-78
2022/10/07 14:30:19;;;;;;;;;;;19.00;77.30;;;;;;5064958;28;19928;-79
2022/10/07 14:35:40;;;;;;;;;;;19.10;77.30;;;;;;5059105;28;19985;-79
2022/10/07 14:38:20;;;;;;;;;;;19.10;77.20;;;;;;5065157;28;19928;-77
2022/10/07 14:40:47;;;;;;;;;;;19.20;77.20;;;;;;5065168;28;19935;-79
2022/10/07 14:43:15;;;;;;;;;;;19.20;77.10;;;;;;5061459;28;19940;-79